createdAt,value
2017-04-01T00:00:09.934Z,0
2017-04-01T00:01:09.850Z,0
2017-04-01T00:02:09.902Z,0
2017-04-01T00:03:09.971Z,0
2017-04-01T00:04:10.037Z,0
2017-04-01T00:05:09.974Z,0
2017-04-01T00:06:10.043Z,0
2017-04-01T00:07:10.071Z,0
2017-04-01T00:08:10.521Z,0
2017-04-01T00:09:10.121Z,0
2017-04-01T00:10:10.220Z,0
2017-04-01T00:11:10.221Z,0
2017-04-01T00:12:10.222Z,0
2017-04-01T00:13:10.265Z,0
2017-04-01T00:14:10.545Z,0
2017-04-01T00:15:10.346Z,0
2017-04-01T00:16:10.346Z,0
2017-04-01T00:17:10.345Z,0
2017-04-01T00:18:10.445Z,0
2017-04-01T00:19:10.464Z,0
2017-04-01T00:20:10.471Z,0
2017-04-01T00:21:10.505Z,0
2017-04-01T00:22:10.607Z,0
2017-04-01T00:23:10.642Z,0
2017-04-01T00:24:10.595Z,0
2017-04-01T00:25:10.701Z,0
2017-04-01T00:26:10.652Z,0
2017-04-01T00:27:10.723Z,0
2017-04-01T00:28:10.826Z,0
2017-04-01T00:29:10.789Z,0
2017-04-01T00:30:10.809Z,0
2017-04-01T00:31:10.914Z,0
2017-04-01T00:32:10.921Z,0
2017-04-01T00:33:10.966Z,0
2017-04-01T00:34:10.940Z,0
2017-04-01T00:35:10.967Z,0
2017-04-01T00:36:11.023Z,0
2017-04-01T00:37:11.060Z,0
2017-04-01T00:38:11.075Z,0
2017-04-01T00:39:11.172Z,0
2017-04-01T00:40:11.142Z,0
2017-04-01T00:41:11.155Z,0
2017-04-01T00:42:11.195Z,0
2017-04-01T00:43:11.251Z,0
2017-04-01T00:44:11.295Z,0
2017-04-01T00:45:11.317Z,0
2017-04-01T00:46:11.356Z,0
2017-04-01T00:47:11.416Z,0
2017-04-01T00:48:11.354Z,0
2017-04-01T00:49:11.555Z,0
2017-04-01T00:50:11.515Z,0
2017-04-01T00:51:11.511Z,0
2017-04-01T00:52:11.571Z,0
2017-04-01T00:53:11.556Z,0
2017-04-01T00:54:11.581Z,0
2017-04-01T00:55:11.629Z,0
2017-04-01T00:56:11.602Z,0
2017-04-01T00:57:11.702Z,0
2017-04-01T00:58:12.054Z,0
2017-04-01T00:59:11.783Z,0
2017-04-01T01:00:11.950Z,0
2017-04-01T01:01:11.825Z,0
2017-04-01T01:02:11.844Z,0
2017-04-01T01:03:12.041Z,0
2017-04-01T01:04:11.893Z,0
2017-04-01T01:05:11.945Z,0
2017-04-01T01:06:11.952Z,0
2017-04-01T01:07:12.003Z,0
2017-04-01T01:08:11.974Z,0
2017-04-01T01:09:12.133Z,0
2017-04-01T01:10:12.096Z,0
2017-04-01T01:11:12.132Z,0
2017-04-01T01:12:12.230Z,0
2017-04-01T01:13:12.193Z,0
2017-04-01T01:14:12.197Z,0
2017-04-01T01:15:12.549Z,0
2017-04-01T01:16:12.295Z,0
2017-04-01T01:17:12.381Z,0
2017-04-01T01:18:12.353Z,0
2017-04-01T01:19:12.388Z,0
2017-04-01T01:20:12.795Z,0
2017-04-01T01:21:12.461Z,0
2017-04-01T01:22:12.507Z,0
2017-04-01T01:23:12.512Z,0
2017-04-01T01:24:12.518Z,0
2017-04-01T01:25:12.669Z,0
2017-04-01T01:26:12.613Z,0
2017-04-01T01:27:12.703Z,0
2017-04-01T01:28:12.663Z,0
2017-04-01T01:29:12.835Z,0
2017-04-01T01:30:12.904Z,0
2017-04-01T01:31:12.758Z,0
2017-04-01T01:32:13.023Z,0
2017-04-01T01:33:12.823Z,0
2017-04-01T01:34:12.950Z,0
2017-04-01T01:35:12.889Z,0
2017-04-01T01:36:12.924Z,0
2017-04-01T01:37:13.033Z,0
2017-04-01T01:38:12.983Z,0
2017-04-01T01:39:13.028Z,0
2017-04-01T01:40:13.023Z,0
2017-04-01T01:41:13.062Z,0
2017-04-01T01:42:13.104Z,0
2017-04-01T01:43:13.200Z,0
2017-04-01T01:44:13.158Z,0
2017-04-01T01:45:13.296Z,0
2017-04-01T01:46:13.242Z,0
2017-04-01T01:47:13.256Z,0
2017-04-01T01:48:13.661Z,0
2017-04-01T01:49:13.326Z,0
2017-04-01T01:50:13.413Z,0
2017-04-01T01:51:13.406Z,0
2017-04-01T01:52:13.450Z,0
2017-04-01T01:53:13.490Z,0
2017-04-01T01:54:13.483Z,0
2017-04-01T01:55:13.508Z,0
2017-04-01T01:56:13.560Z,0
2017-04-01T01:57:13.573Z,0
2017-04-01T01:58:13.697Z,0
2017-04-01T01:59:13.615Z,0
2017-04-01T02:00:13.700Z,0
2017-04-01T02:01:13.700Z,0
2017-04-01T02:02:13.752Z,0
2017-04-01T02:03:13.750Z,0
2017-04-01T02:04:13.829Z,0
2017-04-01T02:05:13.792Z,0
2017-04-01T02:06:13.861Z,0
2017-04-01T02:07:13.907Z,0
2017-04-01T02:08:13.954Z,0
2017-04-01T02:09:14.008Z,0
2017-04-01T02:10:14.044Z,0
2017-04-01T02:11:14.021Z,0
2017-04-01T02:12:14.058Z,0
2017-04-01T02:13:14.078Z,0
2017-04-01T02:14:14.138Z,0
2017-04-01T02:15:14.153Z,0
2017-04-01T02:16:14.193Z,0
2017-04-01T02:17:14.180Z,0
2017-04-01T02:18:14.238Z,0
2017-04-01T02:19:14.303Z,0
2017-04-01T02:20:14.325Z,0
2017-04-01T02:21:14.403Z,0
2017-04-01T02:22:14.334Z,0
2017-04-01T02:23:14.450Z,0
2017-04-01T02:24:14.423Z,0
2017-04-01T02:25:14.439Z,0
2017-04-01T02:26:47.183Z,0
2017-04-01T02:27:27.184Z,0
2017-04-01T02:28:27.217Z,0
2017-04-01T02:29:27.254Z,0
2017-04-01T02:30:27.288Z,0
2017-04-01T02:31:27.295Z,0
2017-04-01T02:32:27.354Z,0
2017-04-01T02:33:27.358Z,0
2017-04-01T02:34:27.363Z,0
2017-04-01T02:35:27.523Z,0
2017-04-01T02:36:27.481Z,0
2017-04-01T02:37:27.478Z,0
2017-04-01T02:38:27.525Z,0
2017-04-01T02:39:27.552Z,0
2017-04-01T02:40:27.724Z,0
2017-04-01T02:41:27.604Z,0
2017-04-01T02:42:27.650Z,0
2017-04-01T02:43:27.722Z,0
2017-04-01T02:44:27.710Z,0
2017-04-01T02:45:27.843Z,0
2017-04-01T02:46:27.781Z,0
2017-04-01T02:47:27.799Z,0
2017-04-01T02:48:27.825Z,0
2017-04-01T02:49:27.846Z,0
2017-04-01T02:50:27.967Z,0
2017-04-01T02:51:27.916Z,0
2017-04-01T02:52:27.962Z,0
2017-04-01T02:53:27.964Z,0
2017-04-01T02:54:28.028Z,0
2017-04-01T02:55:28.152Z,0
2017-04-01T02:56:28.118Z,0
2017-04-01T02:57:28.101Z,0
2017-04-01T02:58:28.146Z,0
2017-04-01T02:59:28.183Z,0
2017-04-01T03:00:28.210Z,0
2017-04-01T03:01:28.232Z,0
2017-04-01T03:02:28.284Z,0
2017-04-01T03:03:28.279Z,0
2017-04-01T03:04:28.336Z,0
2017-04-01T03:05:28.386Z,0
2017-04-01T03:06:28.402Z,0
2017-04-01T03:07:28.433Z,0
2017-04-01T03:08:28.481Z,0
2017-04-01T03:09:28.493Z,0
2017-04-01T03:10:28.543Z,0
2017-04-01T03:11:28.557Z,0
2017-04-01T03:12:28.615Z,0
2017-04-01T03:13:28.629Z,0
2017-04-01T03:14:29.352Z,0
2017-04-01T03:15:28.707Z,0
2017-04-01T03:16:28.706Z,0
2017-04-01T03:17:28.735Z,0
2017-04-01T03:18:28.714Z,0
2017-04-01T03:19:28.821Z,0
2017-04-01T03:20:28.814Z,0
2017-04-01T03:21:28.861Z,0
2017-04-01T03:22:28.892Z,0
2017-04-01T03:23:28.940Z,0
2017-04-01T03:24:28.960Z,0
2017-04-01T03:25:28.984Z,0
2017-04-01T03:26:29.087Z,0
2017-04-01T03:27:29.035Z,0
2017-04-01T03:28:29.059Z,0
2017-04-01T03:29:29.106Z,0
2017-04-01T03:30:29.111Z,0
2017-04-01T03:31:29.319Z,0
2017-04-01T03:32:29.201Z,0
2017-04-01T03:33:29.215Z,0
2017-04-01T03:34:29.263Z,0
2017-04-01T03:35:29.272Z,0
2017-04-01T03:36:29.425Z,0
2017-04-01T03:37:29.358Z,0
2017-04-01T03:38:29.392Z,0
2017-04-01T03:39:29.438Z,0
2017-04-01T03:40:29.444Z,0
2017-04-01T03:41:29.842Z,0
2017-04-01T03:42:29.470Z,0
2017-04-01T03:43:29.551Z,0
2017-04-01T03:44:29.579Z,0
2017-04-01T03:45:29.561Z,0
2017-04-01T03:46:29.758Z,0
2017-04-01T03:47:29.682Z,0
2017-04-01T03:48:29.662Z,0
2017-04-01T03:49:29.730Z,0
2017-04-01T03:50:29.758Z,0
2017-04-01T03:51:29.783Z,0
2017-04-01T03:52:29.803Z,0
2017-04-01T03:53:29.854Z,0
2017-04-01T03:54:29.873Z,0
2017-04-01T03:55:29.909Z,0
2017-04-01T03:56:29.939Z,0
2017-04-01T03:57:29.971Z,0
2017-04-01T03:58:30.000Z,0
2017-04-01T03:59:30.022Z,0
2017-04-01T04:00:29.990Z,0
2017-04-01T04:01:30.007Z,0
2017-04-01T04:02:30.041Z,0
2017-04-01T04:03:30.108Z,0
2017-04-01T04:04:30.108Z,0
2017-04-01T04:05:30.159Z,0
2017-04-01T04:06:30.207Z,0
2017-04-01T04:07:30.185Z,0
2017-04-01T04:08:30.223Z,0
2017-04-01T04:09:30.255Z,0
2017-04-01T04:10:30.637Z,0
2017-04-01T04:11:30.303Z,0
2017-04-01T04:12:30.346Z,0
2017-04-01T04:13:30.376Z,0
2017-04-01T04:14:30.410Z,0
2017-04-01T04:15:30.584Z,0
2017-04-01T04:16:30.458Z,0
2017-04-01T04:17:30.502Z,0
2017-04-01T04:18:30.533Z,0
2017-04-01T04:19:30.595Z,0
2017-04-01T04:20:30.748Z,0
2017-04-01T04:21:30.614Z,0
2017-04-01T04:22:30.668Z,0
2017-04-01T04:23:30.678Z,0
2017-04-01T04:24:30.704Z,0
2017-04-01T04:25:30.900Z,0
2017-04-01T04:26:30.776Z,0
2017-04-01T04:27:30.806Z,0
2017-04-01T04:28:30.840Z,0
2017-04-01T04:29:30.868Z,0
2017-04-01T04:30:31.156Z,0
2017-04-01T04:31:30.924Z,0
2017-04-01T04:32:30.964Z,0
2017-04-01T04:33:30.998Z,0
2017-04-01T04:34:31.025Z,0
2017-04-01T04:35:31.086Z,5
2017-04-01T04:36:31.110Z,5
2017-04-01T04:37:31.110Z,5
2017-04-01T04:38:31.156Z,5
2017-04-01T04:39:31.167Z,5
2017-04-01T04:40:31.189Z,5
2017-04-01T04:41:31.206Z,5
2017-04-01T04:42:31.269Z,10
2017-04-01T04:43:31.293Z,10
2017-04-01T04:44:31.331Z,10
2017-04-01T04:45:31.359Z,10
2017-04-01T04:46:31.393Z,15
2017-04-01T04:47:31.421Z,15
2017-04-01T04:48:31.417Z,15
2017-04-01T04:49:31.517Z,20
2017-04-01T04:50:31.802Z,20
2017-04-01T04:51:31.538Z,20
2017-04-01T04:52:31.582Z,25
2017-04-01T04:53:31.591Z,25
2017-04-01T04:54:31.611Z,30
2017-04-01T04:55:31.663Z,30
2017-04-01T04:56:31.686Z,35
2017-04-01T04:57:31.711Z,35
2017-04-01T04:58:31.749Z,40
2017-04-01T04:59:31.769Z,40
2017-04-01T05:00:31.816Z,45
2017-04-01T05:01:31.842Z,45
2017-04-01T05:02:31.892Z,50
2017-04-01T05:03:31.906Z,50
2017-04-01T05:04:31.924Z,55
2017-04-01T05:05:31.984Z,55
2017-04-01T05:06:32.025Z,55
2017-04-01T05:07:32.016Z,60
2017-04-01T05:08:32.060Z,60
2017-04-01T05:09:32.074Z,65
2017-04-01T05:10:32.266Z,65
2017-04-01T05:11:32.165Z,70
2017-04-01T05:12:32.173Z,70
2017-04-01T05:13:32.210Z,70
2017-04-01T05:14:32.242Z,70
2017-04-01T05:15:32.271Z,75
2017-04-01T05:16:32.294Z,80
2017-04-01T05:17:32.336Z,85
2017-04-01T05:18:32.375Z,90
2017-04-01T05:19:32.399Z,95
2017-04-01T05:20:32.421Z,95
2017-04-01T05:21:32.429Z,100
2017-04-01T05:22:32.483Z,100
2017-04-01T05:23:32.568Z,105
2017-04-01T05:24:32.552Z,105
2017-04-01T05:25:32.574Z,110
2017-04-01T05:26:32.604Z,115
2017-04-01T05:27:32.638Z,115
2017-04-01T05:28:32.695Z,120
2017-04-01T05:29:32.693Z,125
2017-04-01T05:30:32.792Z,125
2017-04-01T05:31:32.750Z,125
2017-04-01T05:32:32.790Z,130
2017-04-01T05:33:32.825Z,130
2017-04-01T05:34:32.858Z,135
2017-04-01T05:35:32.883Z,135
2017-04-01T05:36:32.910Z,140
2017-04-01T05:37:32.957Z,140
2017-04-01T05:38:32.975Z,145
2017-04-01T05:39:33.002Z,145
2017-04-01T05:40:33.230Z,145
2017-04-01T05:41:33.058Z,140
2017-04-01T05:42:33.083Z,150
2017-04-01T05:43:33.143Z,155
2017-04-01T05:44:33.157Z,170
2017-04-01T05:45:33.227Z,205
2017-04-01T05:46:33.266Z,295
2017-04-01T05:47:33.258Z,350
2017-04-01T05:48:33.290Z,320
2017-04-01T05:49:33.314Z,260
2017-04-01T05:50:33.366Z,310
2017-04-01T05:51:33.586Z,410
2017-04-01T05:52:33.391Z,485
2017-04-01T05:53:33.450Z,480
2017-04-01T05:54:33.489Z,495
2017-04-01T05:55:33.502Z,530
2017-04-01T05:56:33.544Z,560
2017-04-01T05:57:33.567Z,585
2017-04-01T05:58:33.621Z,565
2017-04-01T05:59:33.652Z,490
2017-04-01T06:00:33.690Z,385
2017-04-01T06:01:33.696Z,520
2017-04-01T06:02:33.746Z,595
2017-04-01T06:03:33.745Z,660
2017-04-01T06:04:33.817Z,630
2017-04-01T06:05:33.942Z,610
2017-04-01T06:06:33.917Z,625
2017-04-01T06:07:33.898Z,595
2017-04-01T06:08:33.999Z,565
2017-04-01T06:09:34.027Z,495
2017-04-01T06:10:34.010Z,440
2017-04-01T06:11:34.032Z,440
2017-04-01T06:12:34.063Z,410
2017-04-01T06:13:34.108Z,345
2017-04-01T06:14:34.158Z,260
2017-04-01T06:15:34.261Z,295
2017-04-01T06:16:34.236Z,330
2017-04-01T06:17:35.516Z,255
2017-04-01T06:18:34.293Z,250
2017-04-01T06:19:34.510Z,285
2017-04-01T06:20:34.380Z,415
2017-04-01T06:21:34.380Z,455
2017-04-01T06:22:34.385Z,615
2017-04-01T06:23:34.622Z,770
2017-04-01T06:24:34.462Z,755
2017-04-01T06:25:34.522Z,705
2017-04-01T06:26:34.527Z,725
2017-04-01T06:27:34.578Z,785
2017-04-01T06:28:34.583Z,820
2017-04-01T06:29:34.628Z,850
2017-04-01T06:30:34.705Z,975
2017-04-01T06:31:34.708Z,940
2017-04-01T06:32:34.772Z,970
2017-04-01T06:33:34.780Z,995
2017-04-01T06:34:34.840Z,960
2017-04-01T06:35:34.943Z,1055
2017-04-01T06:36:34.889Z,1090
2017-04-01T06:37:34.894Z,1130
2017-04-01T06:38:34.986Z,1110
2017-04-01T06:39:35.026Z,805
2017-04-01T06:40:35.187Z,1035
2017-04-01T06:41:35.071Z,1155
2017-04-01T06:42:35.091Z,1125
2017-04-01T06:43:35.140Z,1130
2017-04-01T06:44:35.168Z,1110
2017-04-01T06:45:35.232Z,1115
2017-04-01T06:46:35.246Z,1105
2017-04-01T06:47:36.704Z,1020
2017-04-01T06:48:35.288Z,1130
2017-04-01T06:49:35.353Z,1155
2017-04-01T06:50:35.404Z,1185
2017-04-01T06:51:35.423Z,1180
2017-04-01T06:52:35.468Z,1125
2017-04-01T06:53:35.787Z,1165
2017-04-01T06:54:35.564Z,1230
2017-04-01T06:55:35.603Z,1250
2017-04-01T06:56:35.820Z,1245
2017-04-01T06:57:35.641Z,1265
2017-04-01T06:58:35.676Z,1070
2017-04-01T06:59:35.742Z,1200
2017-04-01T07:00:35.846Z,1165
2017-04-01T07:01:35.821Z,1220
2017-04-01T07:02:35.845Z,1250
2017-04-01T07:03:35.888Z,1280
2017-04-01T07:04:35.907Z,1285
2017-04-01T07:05:35.992Z,1300
2017-04-01T07:06:35.997Z,1325
2017-04-01T07:07:36.040Z,1355
2017-04-01T07:08:36.068Z,1385
2017-04-01T07:09:36.124Z,1360
2017-04-01T07:10:36.155Z,1370
2017-04-01T07:11:36.201Z,1420
2017-04-01T07:12:36.222Z,1430
2017-04-01T07:13:36.267Z,1465
2017-04-01T07:14:36.315Z,1430
2017-04-01T07:15:36.977Z,1445
2017-04-01T07:16:36.371Z,1480
2017-04-01T07:17:36.449Z,1480
2017-04-01T07:18:36.464Z,1485
2017-04-01T07:19:36.515Z,1505
2017-04-01T07:20:36.549Z,1530
2017-04-01T07:21:36.594Z,1565
2017-04-01T07:22:36.637Z,1580
2017-04-01T07:23:36.671Z,1435
2017-04-01T07:24:36.716Z,1560
2017-04-01T07:25:37.001Z,1580
2017-04-01T07:26:36.777Z,1580
2017-04-01T07:27:36.833Z,1570
2017-04-01T07:28:36.860Z,1580
2017-04-01T07:29:36.925Z,1585
2017-04-01T07:30:36.966Z,1630
2017-04-01T07:31:37.001Z,1640
2017-04-01T07:32:37.051Z,1600
2017-04-01T07:33:37.071Z,1635
2017-04-01T07:34:37.123Z,1590
2017-04-01T07:35:37.284Z,1595
2017-04-01T07:36:37.190Z,1510
2017-04-01T07:37:37.258Z,1460
2017-04-01T07:38:37.321Z,1560
2017-04-01T07:39:37.339Z,1595
2017-04-01T07:40:37.474Z,1550
2017-04-01T07:41:37.417Z,1565
2017-04-01T07:42:37.439Z,1620
2017-04-01T07:43:38.829Z,1620
2017-04-01T07:44:37.586Z,1625
2017-04-01T07:45:37.711Z,1645
2017-04-01T07:46:37.603Z,1640
2017-04-01T07:47:37.665Z,1640
2017-04-01T07:48:37.703Z,1610
2017-04-01T07:49:37.753Z,1655
2017-04-01T07:50:37.780Z,1690
2017-04-01T07:51:37.830Z,1705
2017-04-01T07:52:37.887Z,1690
2017-04-01T07:53:37.913Z,1720
2017-04-01T07:54:37.936Z,1730
2017-04-01T07:55:37.980Z,1740
2017-04-01T07:56:38.034Z,1755
2017-04-01T07:57:38.091Z,1755
2017-04-01T07:58:38.411Z,1755
2017-04-01T07:59:38.213Z,1750
2017-04-01T08:00:39.084Z,1785
2017-04-01T08:01:38.278Z,1760
2017-04-01T08:02:38.310Z,1690
2017-04-01T08:03:38.339Z,1640
2017-04-01T08:04:38.432Z,1660
2017-04-01T08:05:38.461Z,1655
2017-04-01T08:06:38.490Z,1670
2017-04-01T08:07:38.539Z,1750
2017-04-01T08:08:38.570Z,1785
2017-04-01T08:09:38.625Z,1845
2017-04-01T08:10:38.666Z,1285
2017-04-01T08:11:38.684Z,1170
2017-04-01T08:12:38.714Z,1225
2017-04-01T08:13:38.809Z,1425
2017-04-01T08:14:38.847Z,1390
2017-04-01T08:15:38.866Z,1595
2017-04-01T08:16:38.910Z,1825
2017-04-01T08:17:39.008Z,1865
2017-04-01T08:18:39.175Z,1800
2017-04-01T08:19:39.063Z,1665
2017-04-01T08:20:39.095Z,1785
2017-04-01T08:21:39.145Z,1945
2017-04-01T08:22:39.179Z,1825
2017-04-01T08:23:39.506Z,1860
2017-04-01T08:24:39.276Z,1820
2017-04-01T08:25:40.167Z,1930
2017-04-01T08:26:39.385Z,1985
2017-04-01T08:27:39.402Z,1860
2017-04-01T08:28:39.428Z,1895
2017-04-01T08:29:39.485Z,1615
2017-04-01T08:30:39.777Z,1760
2017-04-01T08:31:39.574Z,1880
2017-04-01T08:32:39.623Z,1810
2017-04-01T08:33:39.663Z,1835
2017-04-01T08:34:39.743Z,1905
2017-04-01T08:35:39.771Z,1880
2017-04-01T08:36:39.835Z,1870
2017-04-01T08:37:39.845Z,1825
2017-04-01T08:38:39.903Z,1870
2017-04-01T08:39:39.932Z,1895
2017-04-01T08:40:39.986Z,1855
2017-04-01T08:41:40.031Z,1830
2017-04-01T08:42:40.072Z,1775
2017-04-01T08:43:40.128Z,1900
2017-04-01T08:44:40.174Z,1920
2017-04-01T08:45:40.233Z,1880
2017-04-01T08:46:40.259Z,1860
2017-04-01T08:47:40.335Z,1855
2017-04-01T08:48:40.351Z,1880
2017-04-01T08:49:40.405Z,1905
2017-04-01T08:50:40.454Z,1815
2017-04-01T08:51:40.491Z,1725
2017-04-01T08:52:40.551Z,1740
2017-04-01T08:53:40.571Z,1815
2017-04-01T08:54:40.633Z,1960
2017-04-01T08:55:40.688Z,2005
2017-04-01T08:56:40.724Z,1870
2017-04-01T08:57:40.782Z,1855
2017-04-01T08:58:40.825Z,1920
2017-04-01T08:59:40.865Z,2000
2017-04-01T09:00:40.906Z,2000
2017-04-01T09:01:40.963Z,2130
2017-04-01T09:02:40.997Z,2140
2017-04-01T09:03:41.050Z,2120
2017-04-01T09:04:41.106Z,2140
2017-04-01T09:05:41.157Z,2005
2017-04-01T09:06:41.205Z,1905
2017-04-01T09:07:41.245Z,2015
2017-04-01T09:08:41.304Z,2090
2017-04-01T09:09:41.341Z,2025
2017-04-01T09:10:41.378Z,1980
2017-04-01T09:11:41.443Z,1960
2017-04-01T09:12:41.475Z,2000
2017-04-01T09:13:41.527Z,2015
2017-04-01T09:14:41.573Z,2070
2017-04-01T09:15:41.636Z,2005
2017-04-01T09:16:41.696Z,2055
2017-04-01T09:17:41.702Z,2105
2017-04-01T09:18:41.798Z,2065
2017-04-01T09:19:41.825Z,2065
2017-04-01T09:20:41.856Z,2075
2017-04-01T09:21:41.921Z,2085
2017-04-01T09:22:41.969Z,2060
2017-04-01T09:23:42.025Z,1980
2017-04-01T09:24:42.073Z,1995
2017-04-01T09:25:42.120Z,2000
2017-04-01T09:26:42.147Z,2130
2017-04-01T09:27:42.222Z,2025
2017-04-01T09:28:42.259Z,2035
2017-04-01T09:29:42.349Z,1960
2017-04-01T09:30:42.362Z,2000
2017-04-01T09:31:42.389Z,2000
2017-04-01T09:32:42.454Z,1980
2017-04-01T09:33:42.502Z,1930
2017-04-01T09:34:42.552Z,1875
2017-04-01T09:35:42.635Z,2035
2017-04-01T09:36:42.646Z,2010
2017-04-01T09:37:42.713Z,2000
2017-04-01T09:38:42.740Z,2055
2017-04-01T09:39:42.785Z,2060
2017-04-01T09:40:42.835Z,2225
2017-04-01T09:41:42.919Z,2265
2017-04-01T09:42:42.983Z,2220
2017-04-01T09:43:42.989Z,2275
2017-04-01T09:44:43.031Z,2315
2017-04-01T09:45:43.098Z,2295
2017-04-01T09:46:43.163Z,2385
2017-04-01T09:47:43.180Z,2325
2017-04-01T09:48:43.220Z,2370
2017-04-01T09:49:43.267Z,2360
2017-04-01T09:50:43.346Z,2305
2017-04-01T09:51:43.361Z,2080
2017-04-01T09:52:43.421Z,1960
2017-04-01T09:53:43.487Z,1750
2017-04-01T09:54:43.536Z,1495
2017-04-01T09:55:43.586Z,1365
2017-04-01T09:56:43.614Z,1165
2017-04-01T09:57:43.659Z,1075
2017-04-01T09:58:43.713Z,1035
2017-04-01T09:59:43.777Z,960
2017-04-01T10:00:43.814Z,920
2017-04-01T10:01:43.867Z,905
2017-04-01T10:02:43.916Z,830
2017-04-01T10:03:43.967Z,800
2017-04-01T10:04:44.014Z,775
2017-04-01T10:05:44.083Z,820
2017-04-01T10:06:44.104Z,810
2017-04-01T10:07:44.135Z,800
2017-04-01T10:08:44.234Z,780
2017-04-01T10:09:44.255Z,775
2017-04-01T10:10:44.304Z,770
2017-04-01T10:11:44.324Z,750
2017-04-01T10:12:44.392Z,750
2017-04-01T10:13:44.439Z,720
2017-04-01T10:14:44.483Z,755
2017-04-01T10:15:44.529Z,755
2017-04-01T10:16:44.578Z,745
2017-04-01T10:17:44.609Z,745
2017-04-01T10:18:44.662Z,755
2017-04-01T10:19:44.744Z,770
2017-04-01T10:20:44.760Z,755
2017-04-01T10:21:44.861Z,760
2017-04-01T10:22:44.861Z,755
2017-04-01T10:23:44.909Z,725
2017-04-01T10:24:44.960Z,710
2017-04-01T10:25:44.999Z,700
2017-04-01T10:26:45.061Z,705
2017-04-01T10:27:45.097Z,700
2017-04-01T10:28:45.121Z,715
2017-04-01T10:29:45.169Z,705
2017-04-01T10:30:45.214Z,705
2017-04-01T10:31:45.277Z,705
2017-04-01T10:32:45.312Z,705
2017-04-01T10:33:45.359Z,705
2017-04-01T10:34:45.454Z,695
2017-04-01T10:35:45.449Z,685
2017-04-01T10:36:45.495Z,700
2017-04-01T10:37:45.788Z,695
2017-04-01T10:38:45.584Z,710
2017-04-01T10:39:45.636Z,695
2017-04-01T10:40:45.683Z,685
2017-04-01T10:41:45.711Z,660
2017-04-01T10:42:45.766Z,640
2017-04-01T10:43:45.819Z,680
2017-04-01T10:44:46.060Z,680
2017-04-01T10:45:45.914Z,675
2017-04-01T10:46:45.940Z,680
2017-04-01T10:47:45.982Z,680
2017-04-01T10:48:46.059Z,680
2017-04-01T10:49:46.064Z,675
2017-04-01T10:50:46.150Z,670
2017-04-01T10:51:46.162Z,665
2017-04-01T10:52:46.193Z,670
2017-04-01T10:53:46.249Z,675
2017-04-01T10:54:46.287Z,665
2017-04-01T10:55:46.306Z,655
2017-04-01T10:56:46.366Z,680
2017-04-01T10:57:46.426Z,675
2017-04-01T10:58:46.457Z,650
2017-04-01T10:59:46.503Z,640
2017-04-01T11:00:46.532Z,645
2017-04-01T11:01:46.571Z,645
2017-04-01T11:02:46.663Z,650
2017-04-01T11:03:46.670Z,650
2017-04-01T11:04:46.716Z,640
2017-04-01T11:05:46.756Z,615
2017-04-01T11:06:46.800Z,545
2017-04-01T11:07:46.830Z,520
2017-04-01T11:08:46.879Z,515
2017-04-01T11:09:47.104Z,500
2017-04-01T11:10:46.959Z,495
2017-04-01T11:11:47.010Z,490
2017-04-01T11:12:47.034Z,485
2017-04-01T11:13:47.092Z,480
2017-04-01T11:14:47.156Z,480
2017-04-01T11:15:47.161Z,470
2017-04-01T11:16:47.219Z,465
2017-04-01T11:17:47.265Z,460
2017-04-01T11:18:47.297Z,450
2017-04-01T11:19:47.329Z,450
2017-04-01T11:20:47.369Z,445
2017-04-01T11:21:47.407Z,430
2017-04-01T11:22:47.472Z,410
2017-04-01T11:23:47.520Z,395
2017-04-01T11:24:47.559Z,385
2017-04-01T11:25:47.592Z,385
2017-04-01T11:26:47.636Z,385
2017-04-01T11:27:47.651Z,380
2017-04-01T11:28:47.720Z,365
2017-04-01T11:29:47.767Z,355
2017-04-01T11:30:47.795Z,345
2017-04-01T11:31:47.828Z,345
2017-04-01T11:32:47.874Z,340
2017-04-01T11:33:47.924Z,345
2017-04-01T11:34:47.968Z,345
2017-04-01T11:35:48.012Z,355
2017-04-01T11:36:48.040Z,355
2017-04-01T11:37:48.126Z,360
2017-04-01T11:38:48.127Z,365
2017-04-01T11:39:48.172Z,370
2017-04-01T11:40:48.210Z,370
2017-04-01T11:41:48.253Z,370
2017-04-01T11:42:48.268Z,365
2017-04-01T11:43:48.319Z,360
2017-04-01T11:44:48.416Z,355
2017-04-01T11:45:48.412Z,345
2017-04-01T11:46:48.463Z,340
2017-04-01T11:47:48.497Z,335
2017-04-01T11:48:48.531Z,320
2017-04-01T11:49:48.588Z,320
2017-04-01T11:50:48.619Z,315
2017-04-01T11:51:48.655Z,320
2017-04-01T11:52:48.692Z,320
2017-04-01T11:53:48.738Z,320
2017-04-01T11:54:48.764Z,320
2017-04-01T11:55:48.824Z,310
2017-04-01T11:56:48.856Z,310
2017-04-01T11:57:48.868Z,305
2017-04-01T11:58:48.932Z,300
2017-04-01T11:59:48.966Z,300
2017-04-01T12:00:49.022Z,295
2017-04-01T12:01:49.064Z,295
2017-04-01T12:02:49.091Z,290
2017-04-01T12:03:49.141Z,290
2017-04-01T12:04:49.162Z,285
2017-04-01T12:05:49.219Z,285
2017-04-01T12:06:49.256Z,285
2017-04-01T12:07:49.301Z,285
2017-04-01T12:08:49.336Z,285
2017-04-01T12:09:49.378Z,285
2017-04-01T12:10:49.423Z,285
2017-04-01T12:11:49.468Z,285
2017-04-01T12:12:49.508Z,280
2017-04-01T12:13:49.536Z,280
2017-04-01T12:14:49.580Z,280
2017-04-01T12:15:49.594Z,280
2017-04-01T12:16:49.664Z,275
2017-04-01T12:17:49.704Z,275
2017-04-01T12:18:49.740Z,270
2017-04-01T12:19:49.769Z,265
2017-04-01T12:20:49.793Z,260
2017-04-01T12:21:49.850Z,250
2017-04-01T12:22:49.903Z,245
2017-04-01T12:23:49.936Z,240
2017-04-01T12:24:49.999Z,240
2017-04-01T12:25:50.003Z,265
2017-04-01T12:26:50.062Z,280
2017-04-01T12:27:50.096Z,290
2017-04-01T12:28:50.136Z,300
2017-04-01T12:29:50.361Z,305
2017-04-01T12:30:50.209Z,300
2017-04-01T12:31:50.266Z,300
2017-04-01T12:32:50.288Z,295
2017-04-01T12:33:50.373Z,285
2017-04-01T12:34:50.372Z,270
2017-04-01T12:35:50.433Z,255
2017-04-01T12:36:50.457Z,250
2017-04-01T12:37:50.483Z,245
2017-04-01T12:38:50.523Z,245
2017-04-01T12:39:50.571Z,250
2017-04-01T12:40:50.614Z,255
2017-04-01T12:41:50.657Z,255
2017-04-01T12:42:50.672Z,260
2017-04-01T12:43:50.732Z,265
2017-04-01T12:44:50.753Z,265
2017-04-01T12:45:50.829Z,265
2017-04-01T12:46:50.848Z,275
2017-04-01T12:47:50.896Z,275
2017-04-01T12:48:50.928Z,270
2017-04-01T12:49:50.961Z,270
2017-04-01T12:50:51.019Z,265
2017-04-01T12:51:51.056Z,265
2017-04-01T12:52:51.079Z,260
2017-04-01T12:53:51.108Z,260
2017-04-01T12:54:51.160Z,250
2017-04-01T12:55:51.208Z,250
2017-04-01T12:56:51.213Z,240
2017-04-01T12:57:51.274Z,235
2017-04-01T12:58:51.323Z,230
2017-04-01T12:59:51.359Z,230
2017-04-01T13:00:51.407Z,225
2017-04-01T13:01:51.442Z,230
2017-04-01T13:02:51.455Z,230
2017-04-01T13:03:51.518Z,235
2017-04-01T13:04:51.565Z,240
2017-04-01T13:05:51.595Z,245
2017-04-01T13:06:51.632Z,250
2017-04-01T13:07:51.682Z,250
2017-04-01T13:08:51.716Z,250
2017-04-01T13:09:51.777Z,250
2017-04-01T13:10:51.795Z,245
2017-04-01T13:11:51.818Z,235
2017-04-01T13:12:51.858Z,230
2017-04-01T13:13:51.915Z,240
2017-04-01T13:14:51.941Z,240
2017-04-01T13:15:51.984Z,245
2017-04-01T13:16:52.023Z,235
2017-04-01T13:17:52.059Z,225
2017-04-01T13:18:52.100Z,220
2017-04-01T13:19:52.135Z,225
2017-04-01T13:20:52.164Z,225
2017-04-01T13:21:52.217Z,220
2017-04-01T13:22:52.263Z,225
2017-04-01T13:23:52.303Z,225
2017-04-01T13:24:52.310Z,225
2017-04-01T13:25:52.357Z,225
2017-04-01T13:26:52.431Z,220
2017-04-01T13:27:52.465Z,215
2017-04-01T13:28:52.497Z,215
2017-04-01T13:29:52.536Z,210
2017-04-01T13:30:52.556Z,210
2017-04-01T13:31:52.618Z,205
2017-04-01T13:32:52.644Z,200
2017-04-01T13:33:52.688Z,205
2017-04-01T13:34:52.715Z,200
2017-04-01T13:35:52.787Z,200
2017-04-01T13:36:52.813Z,200
2017-04-01T13:37:52.838Z,190
2017-04-01T13:38:52.882Z,190
2017-04-01T13:39:52.913Z,200
2017-04-01T13:40:52.959Z,205
2017-04-01T13:41:53.005Z,205
2017-04-01T13:42:53.020Z,205
2017-04-01T13:43:53.085Z,205
2017-04-01T13:44:53.118Z,210
2017-04-01T13:45:53.163Z,210
2017-04-01T13:46:53.185Z,205
2017-04-01T13:47:53.231Z,210
2017-04-01T13:48:53.316Z,205
2017-04-01T13:49:53.315Z,205
2017-04-01T13:50:53.353Z,205
2017-04-01T13:51:53.410Z,200
2017-04-01T13:52:53.617Z,200
2017-04-01T13:53:53.456Z,200
2017-04-01T13:54:53.550Z,195
2017-04-01T13:55:53.549Z,195
2017-04-01T13:56:53.585Z,195
2017-04-01T13:57:53.623Z,190
2017-04-01T13:58:53.656Z,190
2017-04-01T13:59:53.699Z,190